Airfield :
LOGIN :

Register | Disclaimer

   EN    FR    IT 

 










Legend :    VFR   Marginal VFR   IFR   Intensive IFR   Very Intensive IFR
Visi :
Ceiling :
>= 8 km
>= 3000ft
5 to 8 km
1000 to 3000 ft
1500m to 5 km
500 to 1000 ft
800 to 1500m
200 to 500 ft
< 800m
< 200 ft
Symbols :   Thunderstorms  Fog  Heavy snow  Heavy precipitations  Wind > 20 kt
SIGMETs :     Misc.  Thunderstorms  Icing  Turbulence  Mountain Waves  Volcanic Ashes






- Airport Elevation : -15 ft
- IATA code : RTM


EHRD - Rotterdam Zestienhoven

CURRENT METAR :
  • 290455Z AUTO 24014KT 200V270 5000 -RA FEW008 SCT010 BKN032 14/13 Q1008 BECMG SCT008 BKN012

EXPIRED METARs :
  • 290425Z AUTO 23014KT 200V270 4300 +DZ FEW006 SCT008 BKN009 14/13 Q1007 TEMPO 9000 -RA
  • 290355Z AUTO 24016KT 200V270 3900 BR SCT007 BKN008 OVC011 14/13 Q1008 TEMPO 9000 -RA
  • 290325Z AUTO 24017KT 210V280 5000 FEW007/// SCT008/// BKN009/// 15/14 Q1007 REDZ BECMG 9999 NSW
  • 290255Z AUTO 22014KT 190V250 3700 +DZ FEW005 SCT006 BKN008 15/14 Q1008 BECMG 9999 NSW
  • 290225Z AUTO 21014KT 180V240 3900 -SHRA +DZ SCT007/// BKN008/// BKN010/// 15/14 Q1008 TEMPO 7000 RA BKN012
  • 290155Z AUTO 22013KT 170V240 9000 -SHRA FEW007/// SCT009/// BKN011/// 15/14 Q1008 REDZ TEMPO 7000 RA BKN009
  • 290125Z AUTO 21012KT 180V250 9999 DZ SCT009 BKN010 BKN013 FEW015CB 15/14 Q1009 TEMPO 7000 -RA BKN009
  • 290055Z AUTO 21012KT 170V240 9999 +DZRA FEW007 BKN009 BKN011 SCT015CB 15/14 Q1009 TEMPO 7000 -RA BKN012
  • 290025Z AUTO 21013KT 180V240 9999 -SHRA +DZ SCT007 BKN009 OVC010 15/14 Q1010 TEMPO 6000 RA BKN012

TAF TAF EHRD
Valid from the 29 at 00:00 until the 30 at 06:00 UTC


282317Z 2900/3006 21012KT 9999 SCT008 BKN010
TEMPO 2900/2905 4000 RADZ SHRA BKN008 SCT018CB
BECMG 2904/2907 25015KT SCT018 BKN030
TEMPO 2905/2911 6000 SHRA BKN016 SCT018CB
BECMG 2918/2921 22007KT
PROB30
TEMPO 3002/3006 7000 -SHRA BKN018 FEW020TCU



MET'MAP, your aeronautical weather chart ! - Copyright ORBIFLY December 2007 - Disclaimer

ORBIFLY MET'MAP TEAM :

Programming & Development : Alexandra Zaïnal
Original concept : Baudouin d'Aumeries
Technical & hardware support : Manuel Goepfert
Assistance : Marc-Olivier Méhu




SOURCES & CREDITS :

   NOAA